createdAt,value
2022-12-29T00:00:28.075Z,9.745468
2022-12-29T00:01:28.016Z,9.745569
2022-12-29T00:02:28.105Z,9.745539
2022-12-29T00:03:28.076Z,9.745671
2022-12-29T00:04:27.991Z,9.745882
2022-12-29T00:05:27.984Z,9.745796
2022-12-29T00:06:27.977Z,9.745701
2022-12-29T00:07:27.988Z,9.745510
2022-12-29T00:08:27.961Z,9.745684
2022-12-29T00:09:27.955Z,9.745700
2022-12-29T00:10:27.942Z,9.745342
2022-12-29T00:11:27.943Z,9.745632
2022-12-29T00:12:27.953Z,9.745558
2022-12-29T00:13:27.922Z,9.745509
2022-12-29T00:14:27.913Z,9.745488
2022-12-29T00:15:27.910Z,9.745763
2022-12-29T00:16:28.004Z,9.745778
2022-12-29T00:17:27.910Z,9.745589
2022-12-29T00:18:27.878Z,9.745548
2022-12-29T00:19:27.880Z,9.745641
2022-12-29T00:20:27.871Z,9.745616
2022-12-29T00:21:27.859Z,9.745519
2022-12-29T00:22:27.870Z,9.745348
2022-12-29T00:23:27.842Z,9.745489
2022-12-29T00:24:27.839Z,9.745450
2022-12-29T00:25:27.827Z,9.745625
2022-12-29T00:26:27.817Z,9.745437
2022-12-29T00:27:27.836Z,9.745389
2022-12-29T00:28:27.804Z,9.745594
2022-12-29T00:29:27.794Z,9.745621
2022-12-29T00:30:27.782Z,9.745586
2022-12-29T00:31:27.866Z,9.745556
2022-12-29T00:32:27.798Z,9.745591
2022-12-29T00:33:27.757Z,9.745649
2022-12-29T00:34:28.759Z,9.745640
2022-12-29T00:35:27.750Z,9.745604
2022-12-29T00:36:27.777Z,9.745293
2022-12-29T00:37:27.759Z,9.745264
2022-12-29T00:38:27.771Z,9.745417
2022-12-29T00:39:27.720Z,9.745625
2022-12-29T00:40:27.741Z,9.745795
2022-12-29T00:41:27.699Z,9.745732
2022-12-29T00:42:27.688Z,9.745681
2022-12-29T00:43:27.710Z,9.745557
2022-12-29T00:44:27.675Z,9.745605
2022-12-29T00:45:27.679Z,9.745295
2022-12-29T00:46:27.690Z,9.745515
2022-12-29T00:47:27.662Z,9.745652
2022-12-29T00:48:27.665Z,9.745023
2022-12-29T00:49:27.628Z,9.745064
2022-12-29T00:50:27.630Z,9.745374
2022-12-29T00:51:27.620Z,9.745266
2022-12-29T00:52:27.622Z,9.745337
2022-12-29T00:53:27.630Z,9.745493
2022-12-29T00:54:27.597Z,9.745416
2022-12-29T00:55:27.588Z,9.745384
2022-12-29T00:56:27.583Z,9.745304
2022-12-29T00:57:27.575Z,9.745242
2022-12-29T00:58:27.870Z,9.745559
2022-12-29T00:59:27.558Z,9.745235
2022-12-29T01:00:27.615Z,9.745121
2022-12-29T01:01:27.662Z,9.745186
2022-12-29T01:02:27.595Z,9.745302
2022-12-29T01:03:28.554Z,9.745014
2022-12-29T01:04:27.542Z,9.745565
2022-12-29T01:05:27.516Z,9.745849
2022-12-29T01:06:27.509Z,9.745591
2022-12-29T01:07:27.500Z,9.745480
2022-12-29T01:08:27.520Z,9.745567
2022-12-29T01:09:27.493Z,9.745629
2022-12-29T01:10:27.480Z,9.745655
2022-12-29T01:11:27.527Z,9.745317
2022-12-29T01:12:27.514Z,9.745349
2022-12-29T01:13:27.479Z,9.745474
2022-12-29T01:14:27.448Z,9.745525
2022-12-29T01:15:27.439Z,9.745584
2022-12-29T01:16:27.552Z,9.745718
2022-12-29T01:17:27.424Z,9.745621
2022-12-29T01:18:27.491Z,9.745926
2022-12-29T01:19:27.408Z,9.745896
2022-12-29T01:20:27.402Z,9.745804
2022-12-29T01:21:27.403Z,9.746009
2022-12-29T01:22:27.396Z,9.745601
2022-12-29T01:23:27.410Z,9.745574
2022-12-29T01:24:27.375Z,9.745600
2022-12-29T01:25:27.365Z,9.745335
2022-12-29T01:26:27.351Z,9.745152
2022-12-29T01:27:27.353Z,9.745521
2022-12-29T01:28:27.360Z,9.745328
2022-12-29T01:29:27.332Z,9.745297
2022-12-29T01:30:27.327Z,9.745293
2022-12-29T01:31:27.345Z,9.745364
2022-12-29T01:32:27.308Z,9.745261
2022-12-29T01:33:27.331Z,9.745236
2022-12-29T01:34:27.294Z,9.745776
2022-12-29T01:35:27.289Z,9.745693
2022-12-29T01:36:27.281Z,9.745758
2022-12-29T01:37:27.275Z,9.745686
2022-12-29T01:38:27.289Z,9.745379
2022-12-29T01:39:27.256Z,9.745468
2022-12-29T01:40:27.250Z,9.745585
2022-12-29T01:41:27.240Z,9.745601
2022-12-29T01:42:27.241Z,9.745489
2022-12-29T01:43:27.254Z,9.745551
2022-12-29T01:44:27.217Z,9.745650
2022-12-29T01:45:27.214Z,9.745455
2022-12-29T01:46:27.204Z,9.745657
2022-12-29T01:47:27.210Z,9.745522
2022-12-29T01:48:27.189Z,9.745212
2022-12-29T01:49:27.199Z,9.745383
2022-12-29T01:50:27.164Z,9.745397
2022-12-29T01:51:27.158Z,9.745487
2022-12-29T01:52:27.157Z,9.745442
2022-12-29T01:53:27.150Z,9.745251
2022-12-29T01:54:27.177Z,9.745504
2022-12-29T01:55:27.129Z,9.745332
2022-12-29T01:56:27.130Z,9.745531
2022-12-29T01:57:27.121Z,9.745607
2022-12-29T01:58:27.110Z,9.745644
2022-12-29T01:59:27.135Z,9.745219
2022-12-29T02:00:27.098Z,9.745745
2022-12-29T02:01:27.205Z,9.745837
2022-12-29T02:02:30.172Z,9.745682
2022-12-29T02:03:28.127Z,9.745100
2022-12-29T02:04:27.092Z,9.745100
2022-12-29T02:05:27.064Z,9.745100
2022-12-29T02:06:28.060Z,9.745415
2022-12-29T02:07:27.044Z,9.745054
2022-12-29T02:08:27.039Z,9.745045
2022-12-29T02:09:27.063Z,9.744730
2022-12-29T02:10:27.035Z,9.745090
2022-12-29T02:11:27.015Z,9.745248
2022-12-29T02:12:27.012Z,9.745158
2022-12-29T02:13:27.001Z,9.745210
2022-12-29T02:14:27.023Z,9.744829
2022-12-29T02:15:26.993Z,9.745210
2022-12-29T02:16:27.046Z,9.745491
2022-12-29T02:17:26.967Z,9.745801
2022-12-29T02:18:26.965Z,9.745794
2022-12-29T02:19:26.981Z,9.745946
2022-12-29T02:20:26.969Z,9.745837
2022-12-29T02:21:26.941Z,9.745654
2022-12-29T02:22:26.937Z,9.745930
2022-12-29T02:23:26.932Z,9.745970
2022-12-29T02:24:26.944Z,9.746260
2022-12-29T02:25:26.911Z,9.746099
2022-12-29T02:26:26.908Z,9.745597
2022-12-29T02:27:26.906Z,9.745221
2022-12-29T02:28:26.901Z,9.745294
2022-12-29T02:29:26.886Z,9.745561
2022-12-29T02:30:26.916Z,9.745620
2022-12-29T02:31:26.947Z,9.745688
2022-12-29T02:32:26.864Z,9.745486
2022-12-29T02:33:26.866Z,9.745420
2022-12-29T02:34:26.853Z,9.745115
2022-12-29T02:35:26.870Z,9.745073
2022-12-29T02:36:26.838Z,9.745090
2022-12-29T02:37:26.825Z,9.745418
2022-12-29T02:38:26.815Z,9.744966
2022-12-29T02:39:26.811Z,9.744942
2022-12-29T02:40:26.830Z,9.745144
2022-12-29T02:41:26.797Z,9.744916
2022-12-29T02:42:26.799Z,9.745175
2022-12-29T02:43:26.781Z,9.745435
2022-12-29T02:44:26.780Z,9.745794
2022-12-29T02:45:26.794Z,9.745622
2022-12-29T02:46:26.833Z,9.745317
2022-12-29T02:47:26.762Z,9.745360
2022-12-29T02:48:26.746Z,9.745424
2022-12-29T02:49:26.737Z,9.745154
2022-12-29T02:50:26.755Z,9.745502
2022-12-29T02:51:26.719Z,9.745561
2022-12-29T02:52:26.727Z,9.745419
2022-12-29T02:53:26.709Z,9.745508
2022-12-29T02:54:26.712Z,9.745499
2022-12-29T02:55:26.721Z,9.745526
2022-12-29T02:56:26.683Z,9.745496
2022-12-29T02:57:26.688Z,9.745556
2022-12-29T02:58:26.671Z,9.745386
2022-12-29T02:59:26.661Z,9.745522
2022-12-29T03:00:26.701Z,9.745466
2022-12-29T03:01:26.813Z,9.745054
2022-12-29T03:02:26.715Z,9.745681
2022-12-29T03:03:26.686Z,9.745491
2022-12-29T03:04:26.628Z,9.745431
2022-12-29T03:05:26.651Z,9.745376
2022-12-29T03:06:26.605Z,9.745337
2022-12-29T03:07:26.606Z,9.745250
2022-12-29T03:08:26.597Z,9.745364
2022-12-29T03:09:26.607Z,9.745236
2022-12-29T03:10:26.613Z,9.745203
2022-12-29T03:11:26.582Z,9.745345
2022-12-29T03:12:26.561Z,9.745577
2022-12-29T03:13:26.556Z,9.745689
2022-12-29T03:14:26.558Z,9.745564
2022-12-29T03:15:26.573Z,9.745383
2022-12-29T03:16:26.569Z,9.745505
2022-12-29T03:17:26.532Z,9.745506
2022-12-29T03:18:26.524Z,9.745461
2022-12-29T03:19:26.525Z,9.745326
2022-12-29T03:20:26.544Z,9.745251
2022-12-29T03:21:26.496Z,9.745257
2022-12-29T03:22:26.493Z,9.745265
2022-12-29T03:23:26.484Z,9.745307
2022-12-29T03:24:26.478Z,9.745236
2022-12-29T03:25:26.494Z,9.745036
2022-12-29T03:26:26.463Z,9.744841
2022-12-29T03:27:26.449Z,9.745194
2022-12-29T03:28:26.458Z,9.745370
2022-12-29T03:29:26.439Z,9.745470
2022-12-29T03:30:26.553Z,9.745357
2022-12-29T03:31:26.452Z,9.745266
2022-12-29T03:32:26.423Z,9.745102
2022-12-29T03:33:26.417Z,9.745147
2022-12-29T03:34:26.398Z,9.744944
2022-12-29T03:35:26.426Z,9.744875
2022-12-29T03:36:26.378Z,9.744981
2022-12-29T03:37:26.373Z,9.745223
2022-12-29T03:38:26.372Z,9.745309
2022-12-29T03:39:26.366Z,9.745373
2022-12-29T03:40:26.372Z,9.745176
2022-12-29T03:41:26.378Z,9.745199
2022-12-29T03:42:26.355Z,9.745119
2022-12-29T03:43:26.330Z,9.745223
2022-12-29T03:44:26.329Z,9.745323
2022-12-29T03:45:26.311Z,9.745239
2022-12-29T03:46:26.364Z,9.745130
2022-12-29T03:47:26.303Z,9.745292
2022-12-29T03:48:26.291Z,9.745288
2022-12-29T03:49:26.286Z,9.745455
2022-12-29T03:50:26.277Z,9.745377
2022-12-29T03:51:26.294Z,9.745130
2022-12-29T03:52:26.258Z,9.744948
2022-12-29T03:53:26.260Z,9.745199
2022-12-29T03:54:26.282Z,9.744040
2022-12-29T03:55:26.246Z,9.745391
2022-12-29T03:56:26.252Z,9.745559
2022-12-29T03:57:26.225Z,9.745595
2022-12-29T03:58:26.220Z,9.745767
2022-12-29T03:59:26.205Z,9.745770
2022-12-29T04:00:26.198Z,9.745561
2022-12-29T04:01:26.309Z,9.745422
2022-12-29T04:02:26.398Z,9.745371
2022-12-29T04:03:26.246Z,9.745363
2022-12-29T04:04:26.172Z,9.745320
2022-12-29T04:05:26.166Z,9.745271
2022-12-29T04:06:26.183Z,9.745214
2022-12-29T04:07:26.144Z,9.745337
2022-12-29T04:08:26.144Z,9.745168
2022-12-29T04:09:26.133Z,9.745532
2022-12-29T04:10:26.122Z,9.745669
2022-12-29T04:11:31.270Z,9.745984
2022-12-29T04:12:28.114Z,9.745934
2022-12-29T04:13:26.107Z,9.745696
2022-12-29T04:14:26.100Z,9.745261
2022-12-29T04:15:26.134Z,9.745433
2022-12-29T04:16:26.172Z,9.745340
2022-12-29T04:17:26.075Z,9.745142
2022-12-29T04:18:26.055Z,9.745876
2022-12-29T04:19:26.062Z,9.745901
2022-12-29T04:20:26.057Z,9.745863
2022-12-29T04:21:26.061Z,9.745593
2022-12-29T04:22:26.028Z,9.745335
2022-12-29T04:23:26.024Z,9.745637
2022-12-29T04:24:26.019Z,9.745148
2022-12-29T04:25:26.005Z,9.745423
2022-12-29T04:26:26.028Z,9.745584
2022-12-29T04:27:25.990Z,9.745515
2022-12-29T04:28:26.022Z,9.745450
2022-12-29T04:29:25.974Z,9.745505
2022-12-29T04:30:25.965Z,9.745356
2022-12-29T04:31:27.012Z,9.745374
2022-12-29T04:32:25.948Z,9.745480
2022-12-29T04:33:25.960Z,9.745473
2022-12-29T04:34:25.940Z,9.745416
2022-12-29T04:35:25.932Z,9.745491
2022-12-29T04:36:29.892Z,9.745951
2022-12-29T04:37:26.925Z,9.745778
2022-12-29T04:38:25.923Z,9.745711
2022-12-29T04:39:25.908Z,9.745967
2022-12-29T04:40:25.896Z,9.745619
2022-12-29T04:41:25.910Z,9.745564
2022-12-29T04:42:25.882Z,9.745448
2022-12-29T04:43:25.873Z,9.746148
2022-12-29T04:44:25.860Z,9.745681
2022-12-29T04:45:25.849Z,9.745686
2022-12-29T04:46:25.920Z,9.745708
2022-12-29T04:47:25.848Z,9.745661
2022-12-29T04:48:25.832Z,9.745327
2022-12-29T04:49:25.820Z,9.745455
2022-12-29T04:50:25.831Z,9.745488
2022-12-29T04:51:25.839Z,9.745485
2022-12-29T04:52:25.808Z,9.745230
2022-12-29T04:53:25.803Z,9.744958
2022-12-29T04:54:25.795Z,9.745450
2022-12-29T04:55:25.786Z,9.745653
2022-12-29T04:56:25.790Z,9.745689
2022-12-29T04:57:25.791Z,9.745722
2022-12-29T04:58:25.752Z,9.745522
2022-12-29T04:59:25.742Z,9.745457
2022-12-29T05:00:25.742Z,9.745354
2022-12-29T05:01:25.840Z,9.745363
2022-12-29T05:02:25.832Z,9.745610
2022-12-29T05:03:25.750Z,9.745569
2022-12-29T05:04:25.707Z,9.745544
2022-12-29T05:05:25.713Z,9.745488
2022-12-29T05:06:25.719Z,9.745567
2022-12-29T05:07:25.681Z,9.745662
2022-12-29T05:08:28.352Z,9.745673
2022-12-29T05:09:26.686Z,9.745546
2022-12-29T05:10:25.663Z,9.745403
2022-12-29T05:11:25.690Z,9.745451
2022-12-29T05:12:25.647Z,9.745642
2022-12-29T05:13:25.643Z,9.745745
2022-12-29T05:14:25.629Z,9.745414
2022-12-29T05:15:25.621Z,9.745357
2022-12-29T05:16:25.678Z,9.745692
2022-12-29T05:17:25.605Z,9.745352
2022-12-29T05:18:25.591Z,9.745761
2022-12-29T05:19:26.588Z,9.745538
2022-12-29T05:20:25.601Z,9.745175
2022-12-29T05:21:25.620Z,9.745413
2022-12-29T05:22:25.573Z,9.744682
2022-12-29T05:23:26.566Z,9.744957
2022-12-29T05:24:25.564Z,9.745282
2022-12-29T05:25:25.537Z,9.745184
2022-12-29T05:26:25.561Z,9.745660
2022-12-29T05:27:25.529Z,9.745634
2022-12-29T05:28:25.522Z,9.745365
2022-12-29T05:29:25.511Z,9.744947
2022-12-29T05:30:25.505Z,9.745377
2022-12-29T05:31:25.532Z,9.745393
2022-12-29T05:32:25.520Z,9.745242
2022-12-29T05:33:25.491Z,9.745286
2022-12-29T05:34:25.471Z,9.745000
2022-12-29T05:35:25.463Z,9.745293
2022-12-29T05:36:25.457Z,9.745280
2022-12-29T05:37:25.478Z,9.745589
2022-12-29T05:38:25.448Z,9.745430
2022-12-29T05:39:25.451Z,9.745116
2022-12-29T05:40:25.430Z,9.745798
2022-12-29T05:41:25.414Z,9.745796
2022-12-29T05:42:25.439Z,9.745152
2022-12-29T05:43:25.407Z,9.745099
2022-12-29T05:44:25.394Z,9.745123
2022-12-29T05:45:25.414Z,9.745301
2022-12-29T05:46:25.434Z,9.745092
2022-12-29T05:47:25.406Z,9.744955
2022-12-29T05:48:25.404Z,9.744955
2022-12-29T05:49:25.368Z,9.744978
2022-12-29T05:50:25.355Z,9.745781
2022-12-29T05:51:25.344Z,9.746029
2022-12-29T05:52:25.357Z,9.746084
2022-12-29T05:53:25.327Z,9.745519
2022-12-29T05:54:25.322Z,9.745131
2022-12-29T05:55:25.315Z,9.745593
2022-12-29T05:56:25.307Z,9.745498
2022-12-29T05:57:25.351Z,9.745471
2022-12-29T05:58:25.299Z,9.745514
2022-12-29T05:59:25.283Z,9.745811
2022-12-29T06:00:25.278Z,9.745622
2022-12-29T06:01:25.304Z,9.745564
2022-12-29T06:02:25.386Z,9.745508
2022-12-29T06:03:25.331Z,9.745728
2022-12-29T06:04:25.244Z,9.745684
2022-12-29T06:05:25.234Z,9.745852
2022-12-29T06:06:25.237Z,9.745972
2022-12-29T06:07:25.246Z,9.745549
2022-12-29T06:08:25.217Z,9.745621
2022-12-29T06:09:25.221Z,9.746174
2022-12-29T06:10:25.205Z,9.745760
2022-12-29T06:11:25.197Z,9.745640
2022-12-29T06:12:25.214Z,9.745575
2022-12-29T06:13:25.182Z,9.745366
2022-12-29T06:14:25.168Z,9.745556
2022-12-29T06:15:25.160Z,9.745333
2022-12-29T06:16:25.263Z,9.745719
2022-12-29T06:17:25.185Z,9.745811
2022-12-29T06:18:25.141Z,9.745732
2022-12-29T06:19:25.139Z,9.745320
2022-12-29T06:20:25.130Z,9.745753
2022-12-29T06:21:25.140Z,9.745796
2022-12-29T06:22:25.135Z,9.746201
2022-12-29T06:23:25.156Z,9.746201
2022-12-29T06:24:25.095Z,9.746201
2022-12-29T06:25:25.099Z,9.746201
2022-12-29T06:26:25.076Z,9.746201
2022-12-29T06:27:25.100Z,9.746201
2022-12-29T06:28:25.077Z,9.746201
2022-12-29T06:29:25.072Z,9.746201
2022-12-29T06:30:25.072Z,9.746201
2022-12-29T06:31:25.089Z,9.746201
2022-12-29T06:32:25.063Z,9.746201
2022-12-29T06:33:25.026Z,9.746201
2022-12-29T06:34:25.018Z,9.746201
2022-12-29T06:35:25.018Z,9.746201
2022-12-29T06:36:25.026Z,9.746201
2022-12-29T06:37:25.028Z,9.746201
2022-12-29T06:38:25.000Z,9.745509
2022-12-29T06:39:24.981Z,9.745435
2022-12-29T06:40:24.973Z,9.745689
2022-12-29T06:41:29.974Z,9.745611
2022-12-29T06:42:26.982Z,9.745317
2022-12-29T06:43:24.952Z,9.745455
2022-12-29T06:44:24.948Z,9.745402
2022-12-29T06:45:24.939Z,9.745565
2022-12-29T06:46:24.981Z,9.745542
2022-12-29T06:47:24.930Z,9.745350
2022-12-29T06:48:24.944Z,9.745424
2022-12-29T06:49:24.901Z,9.745425
2022-12-29T06:50:24.904Z,9.745250
2022-12-29T06:51:24.899Z,9.745256
2022-12-29T06:52:24.891Z,9.745209
2022-12-29T06:53:24.912Z,9.745471
2022-12-29T06:54:24.868Z,9.745600
2022-12-29T06:55:24.858Z,9.745332
2022-12-29T06:56:24.862Z,9.745593
2022-12-29T06:57:24.846Z,9.745693
2022-12-29T06:58:24.871Z,9.745860
2022-12-29T06:59:24.835Z,9.745770
2022-12-29T07:00:24.820Z,9.745719
2022-12-29T07:01:24.892Z,9.745795
2022-12-29T07:02:24.910Z,9.745768
2022-12-29T07:03:24.899Z,9.745743
2022-12-29T07:04:24.786Z,9.745906
2022-12-29T07:05:24.787Z,9.745529
2022-12-29T07:06:24.780Z,9.745677
2022-12-29T07:07:24.774Z,9.745893
2022-12-29T07:08:24.784Z,9.745738
2022-12-29T07:09:24.749Z,9.745342
2022-12-29T07:10:24.761Z,9.745487
2022-12-29T07:11:24.733Z,9.745728
2022-12-29T07:12:24.724Z,9.745791
2022-12-29T07:13:24.741Z,9.745777
2022-12-29T07:14:24.707Z,9.745863
2022-12-29T07:15:24.698Z,9.745799
2022-12-29T07:16:24.716Z,9.745799
2022-12-29T07:17:24.695Z,9.745799
2022-12-29T07:18:24.711Z,9.745799
2022-12-29T07:19:24.671Z,9.745953
2022-12-29T07:20:27.038Z,9.745843
2022-12-29T07:21:25.655Z,9.745943
2022-12-29T07:22:24.648Z,9.746242
2022-12-29T07:23:24.672Z,9.746341
2022-12-29T07:24:24.646Z,9.746228
2022-12-29T07:25:24.632Z,9.746201
2022-12-29T07:26:24.622Z,9.746296
2022-12-29T07:27:24.609Z,9.745891
2022-12-29T07:28:24.632Z,9.746041
2022-12-29T07:29:24.599Z,9.746053
2022-12-29T07:30:24.593Z,9.745853
2022-12-29T07:31:24.632Z,9.745766
2022-12-29T07:32:24.584Z,9.745416
2022-12-29T07:33:24.587Z,9.745535
2022-12-29T07:34:25.565Z,9.745337
2022-12-29T07:35:24.578Z,9.744761
2022-12-29T07:36:28.049Z,9.745261
2022-12-29T07:37:25.541Z,9.744925
2022-12-29T07:38:24.573Z,9.745154
2022-12-29T07:39:25.156Z,9.744933
2022-12-29T07:40:24.521Z,9.745049
2022-12-29T07:41:24.510Z,9.745359
2022-12-29T07:42:24.505Z,9.745368
2022-12-29T07:43:24.524Z,9.745682
2022-12-29T07:44:24.485Z,9.745887
2022-12-29T07:45:24.483Z,9.745165
2022-12-29T07:46:54.188Z,9.745115
2022-12-29T07:47:25.495Z,9.745414
2022-12-29T07:48:24.454Z,9.745364
2022-12-29T07:49:24.470Z,9.745527
2022-12-29T07:50:24.443Z,9.745394
2022-12-29T07:51:24.425Z,9.745303
2022-12-29T07:52:25.422Z,9.745313
2022-12-29T07:53:24.420Z,9.745343
2022-12-29T07:54:24.441Z,9.745498
2022-12-29T07:55:24.408Z,9.745545
2022-12-29T07:56:24.395Z,9.745559
2022-12-29T07:57:29.821Z,9.745559
2022-12-29T07:58:26.367Z,9.745559
2022-12-29T07:59:24.381Z,9.745559
2022-12-29T08:00:25.362Z,9.745165
2022-12-29T08:01:24.626Z,9.745078
2022-12-29T08:02:24.464Z,9.744976
2022-12-29T08:03:24.362Z,9.744941
2022-12-29T08:04:24.408Z,9.744941
2022-12-29T08:05:24.317Z,9.744941
2022-12-29T08:06:24.365Z,9.744941
2022-12-29T08:07:24.303Z,9.744941
2022-12-29T08:08:24.297Z,9.744941
2022-12-29T08:09:24.708Z,9.744905
2022-12-29T08:10:24.284Z,9.745038
2022-12-29T08:11:24.274Z,9.745420
2022-12-29T08:12:24.266Z,9.744832
2022-12-29T08:13:24.254Z,9.744832
2022-12-29T08:14:24.272Z,9.744832
2022-12-29T08:15:28.601Z,9.744832
2022-12-29T08:16:26.246Z,9.744832
2022-12-29T08:17:24.229Z,9.744832
2022-12-29T08:18:24.202Z,9.744832
2022-12-29T08:19:25.239Z,9.744832
2022-12-29T08:20:24.197Z,9.744832
2022-12-29T08:21:24.196Z,9.744832
2022-12-29T08:22:24.185Z,9.744832
2022-12-29T08:23:24.174Z,9.744832
2022-12-29T08:24:24.203Z,9.744832
2022-12-29T08:25:24.237Z,9.744832
2022-12-29T08:26:25.155Z,9.744832
2022-12-29T08:27:24.149Z,9.744832
2022-12-29T08:28:24.138Z,9.744832
2022-12-29T08:29:24.159Z,9.744832
2022-12-29T08:30:24.181Z,9.744832
2022-12-29T08:31:24.212Z,9.744832
2022-12-29T08:32:24.112Z,9.744832
2022-12-29T08:33:24.105Z,9.744832
2022-12-29T08:34:24.130Z,9.744832
2022-12-29T08:35:24.118Z,9.744832
2022-12-29T08:36:24.077Z,9.744832
2022-12-29T08:37:30.738Z,9.744832
2022-12-29T08:38:26.061Z,9.744832
2022-12-29T08:39:24.087Z,9.744832
2022-12-29T08:40:24.075Z,9.744832
2022-12-29T08:41:24.050Z,9.744832
2022-12-29T08:42:24.034Z,9.744832
2022-12-29T08:43:24.045Z,9.744832
2022-12-29T08:44:24.024Z,9.744832
2022-12-29T08:45:24.043Z,9.744832
2022-12-29T08:46:24.038Z,9.744832
2022-12-29T08:47:23.997Z,9.746101
2022-12-29T08:48:23.996Z,9.745913
2022-12-29T08:49:23.985Z,9.745949
2022-12-29T08:50:24.021Z,9.746185
2022-12-29T08:51:25.141Z,9.745330
2022-12-29T08:52:24.970Z,9.745172
2022-12-29T08:53:23.964Z,9.745529
2022-12-29T08:54:23.949Z,9.745506
2022-12-29T08:55:23.963Z,9.745130
2022-12-29T08:56:23.937Z,9.744930
2022-12-29T08:57:23.923Z,9.745322
2022-12-29T08:58:23.913Z,9.745515
2022-12-29T08:59:23.913Z,9.745871
2022-12-29T09:00:23.939Z,9.745824
2022-12-29T09:01:23.989Z,9.745698
2022-12-29T09:02:24.209Z,9.745828
2022-12-29T09:03:45.935Z,9.745787
2022-12-29T09:04:26.062Z,9.745745
2022-12-29T09:05:23.885Z,9.745549
2022-12-29T09:06:23.853Z,9.745589
2022-12-29T09:07:23.848Z,9.745723
2022-12-29T09:08:26.345Z,9.745542
2022-12-29T09:09:24.835Z,9.745381
2022-12-29T09:10:23.843Z,9.745388
2022-12-29T09:11:23.816Z,9.745560
2022-12-29T09:12:23.808Z,9.745658
2022-12-29T09:13:23.800Z,9.745754
2022-12-29T09:14:23.789Z,9.745584
2022-12-29T09:15:23.807Z,9.745534
2022-12-29T09:16:23.901Z,9.745583
2022-12-29T09:17:23.777Z,9.745736
2022-12-29T09:18:23.768Z,9.745468
2022-12-29T09:19:23.754Z,9.745420
2022-12-29T09:20:23.769Z,9.745580
2022-12-29T09:21:23.733Z,9.745442
2022-12-29T09:22:23.731Z,9.745675
2022-12-29T09:23:23.717Z,9.745538
2022-12-29T09:24:23.710Z,9.745425
2022-12-29T09:25:23.725Z,9.745572
2022-12-29T09:26:23.707Z,9.745432
2022-12-29T09:27:23.689Z,9.745368
2022-12-29T09:28:23.679Z,9.745462
2022-12-29T09:29:23.673Z,9.745486
2022-12-29T09:30:23.690Z,9.745393
2022-12-29T09:31:23.718Z,9.745394
2022-12-29T09:32:24.398Z,9.745503
2022-12-29T09:33:24.640Z,9.745518
2022-12-29T09:34:23.633Z,9.745521
2022-12-29T09:35:23.646Z,9.745427
2022-12-29T09:36:23.617Z,9.745526
2022-12-29T09:37:23.611Z,9.745481
2022-12-29T09:38:23.601Z,9.745423
2022-12-29T09:39:23.598Z,9.745510
2022-12-29T09:40:23.627Z,9.745609
2022-12-29T09:41:23.585Z,9.745497
2022-12-29T09:42:23.571Z,9.745533
2022-12-29T09:43:23.568Z,9.745627
2022-12-29T09:44:23.565Z,9.745549
2022-12-29T09:45:23.593Z,9.745400
2022-12-29T09:46:23.580Z,9.745635
2022-12-29T09:47:23.534Z,9.745532
2022-12-29T09:48:23.529Z,9.745382
2022-12-29T09:49:23.518Z,9.745600
2022-12-29T09:50:23.526Z,9.745413
2022-12-29T09:51:23.535Z,9.745617
2022-12-29T09:52:23.497Z,9.745819
2022-12-29T09:53:23.487Z,9.745272
2022-12-29T09:54:23.485Z,9.745241
2022-12-29T09:55:23.502Z,9.745429
2022-12-29T09:56:23.464Z,9.745295
2022-12-29T09:57:23.480Z,9.745292
2022-12-29T09:58:23.449Z,9.745347
2022-12-29T09:59:23.443Z,9.745414
2022-12-29T10:00:23.461Z,9.745206
2022-12-29T10:01:23.613Z,9.745333
2022-12-29T10:02:23.618Z,9.745337
2022-12-29T10:03:23.456Z,9.745498
2022-12-29T10:04:23.419Z,9.745396
2022-12-29T10:05:23.385Z,9.745388
2022-12-29T10:06:23.420Z,9.745592
2022-12-29T10:07:31.087Z,9.745466
2022-12-29T10:08:25.374Z,9.745249
2022-12-29T10:09:23.359Z,9.745162
2022-12-29T10:10:23.356Z,9.745601
2022-12-29T10:11:23.366Z,9.745358
2022-12-29T10:12:23.332Z,9.745457
2022-12-29T10:13:23.331Z,9.745253
2022-12-29T10:14:23.320Z,9.744969
2022-12-29T10:15:23.308Z,9.745502
2022-12-29T10:16:23.356Z,9.745647
2022-12-29T10:17:23.335Z,9.745800
2022-12-29T10:18:23.284Z,9.745536
2022-12-29T10:19:26.975Z,9.745621
2022-12-29T10:20:24.276Z,9.745256
2022-12-29T10:21:23.295Z,9.745320
2022-12-29T10:22:23.257Z,9.745234
2022-12-29T10:23:23.250Z,9.745420
2022-12-29T10:24:23.276Z,9.745581
2022-12-29T10:25:25.087Z,9.745572
2022-12-29T10:26:23.247Z,9.745511
2022-12-29T10:27:23.222Z,9.745568
2022-12-29T10:28:23.214Z,9.745523
2022-12-29T10:29:23.207Z,9.745668
2022-12-29T10:30:23.196Z,9.745449
2022-12-29T10:31:23.273Z,9.745321
2022-12-29T10:32:23.174Z,9.745333
2022-12-29T10:33:23.174Z,9.745460
2022-12-29T10:34:23.158Z,9.745392
2022-12-29T10:35:23.155Z,9.745257
2022-12-29T10:36:23.191Z,9.745354
2022-12-29T10:37:25.425Z,9.745478
2022-12-29T10:38:24.126Z,9.745502
2022-12-29T10:39:23.123Z,9.745345
2022-12-29T10:40:23.114Z,9.745436
2022-12-29T10:41:23.145Z,9.745338
2022-12-29T10:42:23.107Z,9.745152
2022-12-29T10:43:23.098Z,9.745343
2022-12-29T10:44:23.091Z,9.745324
2022-12-29T10:45:23.094Z,9.745405
2022-12-29T10:46:23.155Z,9.745440
2022-12-29T10:47:23.084Z,9.745574
2022-12-29T10:48:25.925Z,9.745740
2022-12-29T10:49:25.051Z,9.745514
2022-12-29T10:50:23.063Z,9.745463
2022-12-29T10:51:23.033Z,9.745511
2022-12-29T10:52:23.054Z,9.745337
2022-12-29T10:53:23.022Z,9.745348
2022-12-29T10:54:23.021Z,9.745393
2022-12-29T10:55:23.008Z,9.745311
2022-12-29T10:56:22.996Z,9.745211
2022-12-29T10:57:23.012Z,9.745594
2022-12-29T10:58:22.975Z,9.745718
2022-12-29T10:59:22.972Z,9.745566
2022-12-29T11:00:22.991Z,9.745382
2022-12-29T11:01:23.059Z,9.745625
2022-12-29T11:02:23.127Z,9.745964
2022-12-29T11:03:22.993Z,9.745362
2022-12-29T11:04:22.933Z,9.745330
2022-12-29T11:05:22.923Z,9.745366
2022-12-29T11:06:22.942Z,9.745656
2022-12-29T11:07:27.010Z,9.745247
2022-12-29T11:08:23.902Z,9.745002
2022-12-29T11:09:28.825Z,9.745074
2022-12-29T11:10:23.886Z,9.745401
2022-12-29T11:11:22.880Z,9.745843
2022-12-29T11:12:22.905Z,9.745728
2022-12-29T11:13:22.874Z,9.745455
2022-12-29T11:14:22.857Z,9.745499
2022-12-29T11:15:22.856Z,9.745722
2022-12-29T11:16:22.865Z,9.745849
2022-12-29T11:17:22.882Z,9.745261
2022-12-29T11:18:22.851Z,9.745258
2022-12-29T11:19:22.827Z,9.744796
2022-12-29T11:20:22.814Z,9.744898
2022-12-29T11:21:22.803Z,9.745367
2022-12-29T11:22:22.799Z,9.745334
2022-12-29T11:23:22.811Z,9.745719
2022-12-29T11:24:22.792Z,9.745435
2022-12-29T11:25:22.770Z,9.744995
2022-12-29T11:26:22.777Z,9.745315
2022-12-29T11:27:22.751Z,9.745184
2022-12-29T11:28:22.776Z,9.745186
2022-12-29T11:29:22.752Z,9.745374
2022-12-29T11:30:22.731Z,9.745503
2022-12-29T11:31:22.751Z,9.745121
2022-12-29T11:32:28.115Z,9.744824
2022-12-29T11:33:24.733Z,9.744681
2022-12-29T11:34:22.704Z,9.745153
2022-12-29T11:35:22.695Z,9.745161
2022-12-29T11:36:22.686Z,9.745052
2022-12-29T11:37:22.676Z,9.745384
2022-12-29T11:38:22.697Z,9.745168
2022-12-29T11:39:22.662Z,9.745162
2022-12-29T11:40:22.661Z,9.744471
2022-12-29T11:41:22.638Z,9.744710
2022-12-29T11:42:22.632Z,9.745146
2022-12-29T11:43:22.653Z,9.744701
2022-12-29T11:44:22.615Z,9.744829